M I D A S
Marine Information and Data Acquisition System
Tripno 1035 of the Zeeleeuw from 2006-02-23 09:23:43 to 2006-02-23 15:21:12
Back to CruiseResearch ActivitiesStationsMapUnderway DataData graphs

EquipmentUnitsComment
TimeDGPSUTC
LatitudeDGPSDM.mWGS84
LongitudeDGPSDM.mWGS84
HeadingGyrodeg 
SOGDGPSknotsSpeed over ground
COGDGPSdegCourse over ground
DepthEcho soundermeters200 kHz
Missing or incorrect values are displayed as -999
Navigation data collected by the RV Zeeleeuw from 2006-02-23 07:19:30 to 2006-02-23 15:32:57
Time Latitude Longitude Heading SOG COG Depth
2006-02-23 07:20:35 51°13.598 2°56.094 125.7 -999 185 -999
2006-02-23 07:21:35 51°13.598 2°56.093 125.8 -999 353 -999
2006-02-23 07:22:35 51°13.598 2°56.094 126.2 -999 127 -999
2006-02-23 07:23:35 51°13.598 2°56.093 126.2 0.1 316 -999
2006-02-23 07:24:35 51°13.598 2°56.094 125.8 -999 112 -999
2006-02-23 07:25:35 51°13.599 2°56.094 126.8 -999 221 -999
2006-02-23 07:26:35 51°13.599 2°56.095 126.6 -999 310 -999
2006-02-23 07:27:35 51°13.599 2°56.094 126.2 -999 83 -999
2006-02-23 07:28:35 51°13.599 2°56.094 126.8 -999 163 -999
2006-02-23 07:29:35 51°13.599 2°56.095 127 -999 272 -999
2006-02-23 07:30:35 51°13.599 2°56.095 125.9 -999 295 -999
2006-02-23 07:31:35 51°13.599 2°56.095 126.1 -999 116 -999
2006-02-23 07:32:35 51°13.599 2°56.095 126.9 -999 109 -999
2006-02-23 07:33:35 51°13.599 2°56.096 127 -999 76 -999
2006-02-23 07:34:35 51°13.598 2°56.096 126.3 -999 182 -999
2006-02-23 07:35:35 51°13.598 2°56.096 126.7 -999 311 -999
2006-02-23 07:36:35 51°13.599 2°56.097 126.4 -999 178 -999
2006-02-23 07:37:34 51°13.599 2°56.097 126.3 -999 91 -999
2006-02-23 07:38:32 51°13.598 2°56.097 126.2 -999 47 -999
2006-02-23 07:39:32 51°13.599 2°56.096 126.3 -999 44 -999
2006-02-23 07:40:32 51°13.599 2°56.096 126.2 -999 150 -999
2006-02-23 07:41:32 51°13.599 2°56.095 126.2 -999 101 -999
2006-02-23 07:42:33 51°13.599 2°56.094 125.7 -999 329 -999
2006-02-23 07:43:32 51°13.598 2°56.094 126 -999 115 -999
2006-02-23 07:44:32 51°13.598 2°56.094 126.8 -999 343 -999
2006-02-23 07:45:32 51°13.599 2°56.094 125.8 -999 302 -999
2006-02-23 07:46:32 51°13.599 2°56.094 125.5 -999 93 -999
2006-02-23 07:47:32 51°13.599 2°56.094 126 -999 123 -999
2006-02-23 07:48:32 51°13.599 2°56.094 125.8 -999 49 -999
2006-02-23 07:49:33 51°13.597 2°56.092 125.8 -999 30 -999
2006-02-23 07:50:32 51°13.597 2°56.092 125.7 -999 213 -999
2006-02-23 07:51:32 51°13.597 2°56.092 125.9 -999 182 -999
2006-02-23 07:52:32 51°13.597 2°56.093 126.9 -999 357 -999
2006-02-23 07:53:32 51°13.598 2°56.093 126.1 -999 336 -999
2006-02-23 07:54:32 51°13.598 2°56.093 125.8 -999 31 -999
2006-02-23 07:55:32 51°13.597 2°56.094 126.7 -999 129 -999
2006-02-23 07:56:32 51°13.598 2°56.094 127.1 -999 286 -999
2006-02-23 07:57:32 51°13.598 2°56.094 126.8 -999 14 -999
2006-02-23 07:58:32 51°13.598 2°56.094 126.4 -999 73 -999
2006-02-23 07:59:32 51°13.597 2°56.095 126.5 -999 111 -999
2006-02-23 08:00:32 51°13.598 2°56.094 126.2 -999 169 -999
2006-02-23 08:01:32 51°13.598 2°56.094 126.1 -999 187 -999
2006-02-23 08:02:32 51°13.598 2°56.094 126.1 -999 182 -999
2006-02-23 08:03:32 51°13.598 2°56.094 126.2 -999 149 -999
2006-02-23 08:04:32 51°13.597 2°56.093 126.3 -999 20 -999
2006-02-23 08:05:32 51°13.597 2°56.094 126.4 -999 272 -999
2006-02-23 08:06:32 51°13.597 2°56.095 126.4 -999 165 -999
2006-02-23 08:07:32 51°13.598 2°56.095 126.4 -999 353 -999
2006-02-23 08:08:32 51°13.598 2°56.095 126.1 -999 283 -999
2006-02-23 08:09:32 51°13.597 2°56.095 125.7 -999 319 -999
2006-02-23 08:10:32 51°13.597 2°56.095 125.6 -999 180 -999
2006-02-23 08:11:32 51°13.597 2°56.095 125.7 -999 128 -999
2006-02-23 08:12:32 51°13.597 2°56.095 125.8 -999 227 -999
2006-02-23 08:13:32 51°13.597 2°56.095 125.9 -999 63 -999
2006-02-23 08:14:32 51°13.598 2°56.095 126 -999 223 -999
2006-02-23 08:15:32 51°13.598 2°56.094 125.9 -999 170 -999
2006-02-23 08:16:32 51°13.598 2°56.094 126.2 -999 281 -999
2006-02-23 08:17:32 51°13.598 2°56.094 126.2 0.1 126 -999
2006-02-23 08:18:32 51°13.599 2°56.094 126.1 -999 288 -999
2006-02-23 08:19:32 51°13.599 2°56.094 126.3 0.1 147 -999
2006-02-23 08:20:32 51°13.599 2°56.095 126.5 -999 30 -999
2006-02-23 08:21:32 51°13.599 2°56.095 126.2 -999 264 -999
2006-02-23 08:22:32 51°13.599 2°56.094 126.1 -999 307 -999
2006-02-23 08:23:33 51°13.599 2°56.094 126.1 -999 155 -999
2006-02-23 08:24:32 51°13.598 2°56.094 126.1 -999 157 -999
2006-02-23 08:25:32 51°13.597 2°56.094 126.2 -999 247 -999
2006-02-23 08:26:32 51°13.597 2°56.094 126.2 -999 284 -999
2006-02-23 08:27:32 51°13.597 2°56.094 126.4 -999 159 -999
2006-02-23 08:28:32 51°13.596 2°56.095 126.5 -999 126 -999
2006-02-23 08:29:32 51°13.597 2°56.096 126.6 -999 142 -999
2006-02-23 08:30:32 51°13.597 2°56.095 126.6 -999 315 -999
2006-02-23 08:31:32 51°13.598 2°56.094 126.5 -999 136 -999
2006-02-23 08:32:32 51°13.599 2°56.094 126.6 0.1 332 -999
2006-02-23 08:33:32 51°13.599 2°56.094 126.6 -999 288 -999
2006-02-23 08:34:32 51°13.598 2°56.093 126.4 -999 40 -999
2006-02-23 08:35:32 51°13.597 2°56.093 127 -999 155 -999
2006-02-23 08:36:32 51°13.597 2°56.093 127.5 -999 208 -999
2006-02-23 08:37:33 51°13.597 2°56.094 127.5 -999 327 -999
2006-02-23 08:38:32 51°13.597 2°56.094 127.1 -999 140 -999
2006-02-23 08:39:33 51°13.598 2°56.094 127.1 -999 156 -999
2006-02-23 08:40:32 51°13.598 2°56.094 127.2 -999 160 -999
2006-02-23 08:41:32 51°13.598 2°56.094 127.3 -999 136 -999
2006-02-23 08:42:32 51°13.597 2°56.094 127.3 -999 147 -999
2006-02-23 08:43:32 51°13.597 2°56.094 127.2 -999 122 -999
2006-02-23 08:44:32 51°13.598 2°56.094 127.2 0.1 352 -999
2006-02-23 08:45:32 51°13.596 2°56.094 127 -999 310 -999
2006-02-23 08:46:32 51°13.598 2°56.094 127.1 -999 282 -999
2006-02-23 08:47:32 51°13.599 2°56.094 127 -999 145 -999
2006-02-23 08:48:33 51°13.599 2°56.094 127.1 -999 317 -999
2006-02-23 08:49:32 51°13.599 2°56.094 127.1 0.1 145 -999
2006-02-23 08:50:32 51°13.6 2°56.093 127.1 -999 162 -999
2006-02-23 08:51:32 51°13.6 2°56.094 127 -999 143 -999
2006-02-23 08:52:33 51°13.598 2°56.093 127 -999 239 -999
2006-02-23 08:53:32 51°13.599 2°56.093 126.8 -999 117 -999
2006-02-23 08:54:32 51°13.599 2°56.093 126.8 -999 169 -999
2006-02-23 08:55:33 51°13.599 2°56.093 126.8 -999 191 -999
2006-02-23 08:56:32 51°13.6 2°56.094 126.7 -999 285 -999
2006-02-23 08:57:32 51°13.599 2°56.094 126.7 -999 79 -999
2006-02-23 08:58:31 51°13.599 2°56.094 126.5 -999 228 -999
2006-02-23 08:59:31 51°13.599 2°56.094 126.4 -999 94 -999
2006-02-23 09:00:31 51°13.599 2°56.094 126.3 -999 177 -999
2006-02-23 09:01:31 51°13.599 2°56.094 126.4 -999 82 -999
2006-02-23 09:02:31 51°13.599 2°56.094 126.4 -999 207 -999
2006-02-23 09:03:31 51°13.599 2°56.094 126.3 -999 171 -999
2006-02-23 09:04:31 51°13.599 2°56.094 126.2 -999 111 -999
2006-02-23 09:05:31 51°13.598 2°56.094 126.3 -999 145 7
2006-02-23 09:06:32 51°13.598 2°56.094 127.3 -999 176 -999
2006-02-23 09:07:31 51°13.598 2°56.094 128.2 -999 67 -999
2006-02-23 09:08:32 51°13.598 2°56.094 128.9 -999 175 -999
2006-02-23 09:09:31 51°13.598 2°56.094 127.1 -999 75 -999
2006-02-23 09:10:31 51°13.599 2°56.094 122.4 -999 196 7.1
2006-02-23 09:11:31 51°13.599 2°56.094 119 -999 102 7.1
2006-02-23 09:12:31 51°13.603 2°56.074 116.8 1.9 297 -999
2006-02-23 09:13:31 51°13.626 2°55.994 116.8 3.8 294 -999
2006-02-23 09:14:32 51°13.653 2°55.9 124.2 3.9 299 -999
2006-02-23 09:15:31 51°13.693 2°55.802 127.1 5.1 303 -999
2006-02-23 09:16:31 51°13.721 2°55.72 109.8 0.9 307 4.8
2006-02-23 09:17:32 51°13.723 2°55.726 60.9 1.7 240 -999
2006-02-23 09:18:31 51°13.722 2°55.703 20.6 1.9 4 -999
2006-02-23 09:19:32 51°13.773 2°55.675 341.7 4.2 337 -999
2006-02-23 09:20:31 51°13.859 2°55.614 339.6 7.1 335 -999
2006-02-23 09:21:32 51°13.992 2°55.516 340.8 8.9 336 -999
2006-02-23 09:22:32 51°14.121 2°55.415 338.9 8.6 334 -999
2006-02-23 09:23:31 51°14.239 2°55.288 324.3 9.4 317 -999
2006-02-23 09:24:31 51°14.354 2°55.071 314.5 11.3 309 -999
2006-02-23 09:25:31 51°14.514 2°54.878 336.9 12.7 332 10.6
2006-02-23 09:26:31 51°14.706 2°54.72 338.5 13 333 10.4
2006-02-23 09:27:31 51°14.893 2°54.551 334.7 12.9 331 10
2006-02-23 09:28:31 51°15.067 2°54.353 322.9 12.9 318 9.7
2006-02-23 09:29:31 51°15.231 2°54.127 325.2 13.1 321 10.1
2006-02-23 09:30:31 51°15.398 2°53.903 325.1 13.2 319 10.9
2006-02-23 09:31:31 51°15.565 2°53.679 324.6 13.1 320 11.3
2006-02-23 09:32:31 51°15.732 2°53.454 324.7 13.2 320 11.9
2006-02-23 09:33:31 51°15.905 2°53.235 327.4 13.3 322 12.4
2006-02-23 09:34:31 51°16.082 2°53.028 329.6 13.1 324 12.6
2006-02-23 09:35:31 51°16.261 2°52.828 330.5 13.1 325 13
2006-02-23 09:36:31 51°16.446 2°52.638 332.4 13.2 327 13
2006-02-23 09:37:31 51°16.629 2°52.448 332 13 328 12
2006-02-23 09:38:31 51°16.814 2°52.263 333 13.2 328 10.8
2006-02-23 09:39:31 51°17 2°52.075 332.2 13.1 328 11.2
2006-02-23 09:40:31 51°17.187 2°51.887 332.4 13.2 327 12
2006-02-23 09:41:31 51°17.373 2°51.695 331.6 13.3 327 12.1
2006-02-23 09:42:31 51°17.558 2°51.504 332.4 13.2 326 10.8
2006-02-23 09:43:31 51°17.685 2°51.232 299.7 12.9 295 10.8
2006-02-23 09:44:31 51°17.754 2°50.907 290.3 13 288 11.9
2006-02-23 09:45:31 51°17.826 2°50.582 292.5 13 288 13.2
2006-02-23 09:46:31 51°17.899 2°50.258 293.2 13 290 13.8
2006-02-23 09:47:31 51°17.97 2°49.933 292.9 13 289 14.6
2006-02-23 09:48:31 51°18.048 2°49.609 294.6 13.1 291 14.4
2006-02-23 09:49:31 51°18.124 2°49.284 295.6 13 291 12.9
2006-02-23 09:50:31 51°18.203 2°48.963 296.5 13.1 293 11.1
2006-02-23 09:51:31 51°18.281 2°48.639 295.4 13.1 291 11.2
2006-02-23 09:52:31 51°18.366 2°48.319 297.3 13.2 293 11.4
2006-02-23 09:53:31 51°18.45 2°47.998 297.2 13.1 294 14
2006-02-23 09:54:31 51°18.537 2°47.676 297 13.2 293 15.3
2006-02-23 09:55:31 51°18.624 2°47.357 297.5 13.2 293 18.6
2006-02-23 09:56:31 51°18.71 2°47.036 296.8 13.1 294 19.5
2006-02-23 09:57:31 51°18.794 2°46.714 297.5 13.2 294 21
2006-02-23 09:58:31 51°18.888 2°46.396 299.3 13.2 295 21.7
2006-02-23 09:59:31 51°18.981 2°46.076 299 13.4 294 20.5
2006-02-23 10:00:31 51°19.077 2°45.758 299.3 13.2 296 19.5
2006-02-23 10:01:31 51°19.173 2°45.44 299 13.3 296 15.6
2006-02-23 10:02:31 51°19.27 2°45.124 298.9 13.3 296 11.9
2006-02-23 10:03:31 51°19.363 2°44.804 298.8 13.4 296 19.2
2006-02-23 10:04:31 51°19.454 2°44.479 297.5 13.4 293 22.7
2006-02-23 10:05:31 51°19.542 2°44.154 297.7 13.3 293 23.7
2006-02-23 10:06:31 51°19.63 2°43.832 297.7 13.1 295 24.8
2006-02-23 10:07:31 51°19.718 2°43.511 297.4 13.1 294 25.8
2006-02-23 10:08:31 51°19.807 2°43.193 297.1 13.1 294 26.5
2006-02-23 10:09:31 51°19.9 2°42.875 297.2 13.2 295 26.4
2006-02-23 10:10:31 51°19.992 2°42.554 298 13.2 296 25.5
2006-02-23 10:11:31 51°20.085 2°42.233 298.8 13.4 296 22.6
2006-02-23 10:12:31 51°20.178 2°41.911 297.5 13.3 294 20.1
2006-02-23 10:13:31 51°20.254 2°41.577 284.5 13.3 282 21.5
2006-02-23 10:14:31 51°20.299 2°41.228 282.9 13.5 280 21
2006-02-23 10:15:31 51°20.336 2°40.883 280.8 13 278 28.8
2006-02-23 10:16:31 51°20.364 2°40.541 280.1 13 278 29.1
2006-02-23 10:17:31 51°20.391 2°40.199 277.9 13.1 276 28.1
2006-02-23 10:18:31 51°20.421 2°39.857 279.5 13 277 27.7
2006-02-23 10:19:31 51°20.454 2°39.516 280.5 12.9 279 26.1
2006-02-23 10:20:31 51°20.49 2°39.173 281.5 13 280 25.6
2006-02-23 10:21:31 51°20.523 2°38.832 279.9 13 278 24.9
2006-02-23 10:22:31 51°20.557 2°38.492 280.2 12.9 280 24.3
2006-02-23 10:23:31 51°20.593 2°38.15 279.5 13.2 282 23.8
2006-02-23 10:24:31 51°20.63 2°37.806 280.2 13.2 279 24.2
2006-02-23 10:25:31 51°20.667 2°37.458 279.6 13.3 278 23.3
2006-02-23 10:26:31 51°20.7 2°37.113 279.8 13.1 277 23.6
2006-02-23 10:27:31 51°20.732 2°36.774 279.8 12.8 278 21.9
2006-02-23 10:28:31 51°20.768 2°36.436 281 12.9 281 21.7
2006-02-23 10:29:31 51°20.803 2°36.098 280.4 12.9 279 25.2
2006-02-23 10:30:31 51°20.833 2°35.756 280.2 13.2 280 27.8
2006-02-23 10:31:31 51°20.866 2°35.413 281 13 280 31.3
2006-02-23 10:32:31 51°20.901 2°35.069 280.3 13.1 280 32.5
2006-02-23 10:33:31 51°20.995 2°34.758 311.5 13.3 309 32.2
2006-02-23 10:34:31 51°21.154 2°34.507 319.5 13.4 316 31
2006-02-23 10:35:31 51°21.308 2°34.252 316.1 13.2 313 31.1
2006-02-23 10:36:31 51°21.46 2°33.997 316.4 13.3 313 32.9
2006-02-23 10:37:31 51°21.612 2°33.742 316.5 13.4 314 29.4
2006-02-23 10:38:31 51°21.764 2°33.486 315.9 13.1 312 25.4
2006-02-23 10:39:31 51°21.914 2°33.228 315.8 13.4 313 23.9
2006-02-23 10:40:31 51°22.068 2°32.968 315 13.4 313 29.7
2006-02-23 10:41:31 51°22.218 2°32.706 315 13.5 312 30.9
2006-02-23 10:42:31 51°22.373 2°32.446 315.7 13.5 315 30.2
2006-02-23 10:43:31 51°22.524 2°32.178 310.9 13.5 308 31.3
2006-02-23 10:44:31 51°22.602 2°31.855 280.3 12.7 279 31.4
2006-02-23 10:45:31 51°22.587 2°31.52 264.6 12.7 263 31
2006-02-23 10:46:31 51°22.574 2°31.183 268.9 12.6 268 31.2
2006-02-23 10:47:31 51°22.566 2°30.844 269.1 12.8 270 30.5
2006-02-23 10:48:31 51°22.561 2°30.502 268.6 13 271 30.5
2006-02-23 10:49:31 51°22.556 2°30.159 269.1 12.9 269 32
2006-02-23 10:50:31 51°22.549 2°29.818 268.7 12.9 271 32.7
2006-02-23 10:51:31 51°22.546 2°29.474 270.7 12.9 272 33.6
2006-02-23 10:52:31 51°22.542 2°29.132 269.8 12.8 269 33.5
2006-02-23 10:53:31 51°22.54 2°28.791 270.2 12.8 269 33.5
2006-02-23 10:54:31 51°22.541 2°28.449 272.2 13 271 33.6
2006-02-23 10:55:31 51°22.538 2°28.103 268.3 13 266 33.2
2006-02-23 10:56:31 51°22.536 2°27.758 270.6 13.3 272 33.9
2006-02-23 10:57:31 51°22.534 2°27.413 269.8 13 270 35.4
2006-02-23 10:58:31 51°22.533 2°27.066 270.7 13 269 34
2006-02-23 10:59:31 51°22.533 2°26.719 270.1 12.9 269 33.6
2006-02-23 11:00:31 51°22.533 2°26.373 271.4 13 271 33.1
2006-02-23 11:01:31 51°22.533 2°26.026 270.7 13.2 271 28.8
2006-02-23 11:02:31 51°22.536 2°25.679 275.3 13.2 278 21.7
2006-02-23 11:03:31 51°22.629 2°25.365 305.6 13.4 306 20.9
2006-02-23 11:04:31 51°22.815 2°25.179 342.3 13.4 340 28.4
2006-02-23 11:05:31 51°23.034 2°25.114 1.6 13.5 358 32.9
2006-02-23 11:06:31 51°23.259 2°25.136 8.8 13.5 4 33.3
2006-02-23 11:07:31 51°23.482 2°25.102 356.2 13.5 353 33.5
2006-02-23 11:08:31 51°23.703 2°25.061 356.7 13.3 353 33.4
2006-02-23 11:09:31 51°23.923 2°25.022 357.9 13.3 353 34.4
2006-02-23 11:10:31 51°24.143 2°24.987 359.4 13.5 356 34.2
2006-02-23 11:11:31 51°24.363 2°24.977 4.8 13.3 2 34.7
2006-02-23 11:12:31 51°24.582 2°25.004 10.8 13.2 5 34.2
2006-02-23 11:13:31 51°24.801 2°25.04 10.1 13.3 6 34
2006-02-23 11:14:31 51°25.021 2°25.074 9.3 13.1 5 34
2006-02-23 11:15:31 51°25.243 2°25.105 9.1 13.3 5 32.5
2006-02-23 11:16:31 51°25.467 2°25.141 9.2 13.4 5 29.2
2006-02-23 11:17:31 51°25.691 2°25.17 9 13.5 5 27
2006-02-23 11:18:31 51°25.914 2°25.206 9.6 13.4 5 27.2
2006-02-23 11:19:31 51°26.138 2°25.25 14.6 13.6 10 32.4
2006-02-23 11:20:31 51°26.353 2°25.364 25.1 13.7 20 31
2006-02-23 11:21:31 51°26.564 2°25.485 23.5 13.4 18 33
2006-02-23 11:22:31 51°26.776 2°25.601 24 13.4 19 33.7
2006-02-23 11:23:31 51°26.987 2°25.71 23.8 13.2 19 33.5
2006-02-23 11:24:31 51°27.198 2°25.823 23.6 13.2 18 33.9
2006-02-23 11:25:31 51°27.408 2°25.934 23.8 13.2 18 34
2006-02-23 11:26:31 51°27.618 2°26.042 23.1 13.2 17 34.5
2006-02-23 11:27:31 51°27.83 2°26.151 23.7 13.3 18 34.2
2006-02-23 11:28:31 51°28.04 2°26.257 23.2 13.3 17 34.5
2006-02-23 11:29:31 51°28.25 2°26.372 27.2 13.1 22 35.1
2006-02-23 11:30:31 51°28.448 2°26.526 33.5 13.3 26 34.8
2006-02-23 11:31:31 51°28.633 2°26.695 43.9 10.6 40 34.7
2006-02-23 11:32:31 51°28.691 2°26.825 78.3 3.1 65 34.8
2006-02-23 11:33:31 51°28.704 2°26.842 92.3 0.7 10 34.6
2006-02-23 11:34:31 51°28.715 2°26.842 85.3 0.7 351 34.5
2006-02-23 11:35:31 51°28.725 2°26.837 72.4 0.6 332 34.5
2006-02-23 11:36:31 51°28.733 2°26.825 63.2 0.6 316 34.9
2006-02-23 11:37:31 51°28.739 2°26.812 50.5 0.6 311 34.7
2006-02-23 11:38:31 51°28.744 2°26.799 38.9 0.6 309 34.8
2006-02-23 11:39:31 51°28.748 2°26.787 30.3 0.6 296 34.9
2006-02-23 11:40:31 51°28.752 2°26.774 20 0.6 292 34.8
2006-02-23 11:41:31 51°28.755 2°26.762 9.3 0.4 298 34.5
2006-02-23 11:42:31 51°28.76 2°26.75 2.9 0.5 304 34.4
2006-02-23 11:43:31 51°28.764 2°26.738 356.4 0.6 304 34.7
2006-02-23 11:44:31 51°28.769 2°26.726 352.1 0.6 306 34
2006-02-23 11:45:31 51°28.774 2°26.714 349.8 0.6 298 34.2
2006-02-23 11:46:31 51°28.779 2°26.701 349.2 0.5 303 34.2
2006-02-23 11:47:31 51°28.785 2°26.688 349.9 0.7 312 34.3
2006-02-23 11:48:31 51°28.792 2°26.674 352.3 0.7 318 34.6
2006-02-23 11:49:31 51°28.799 2°26.659 355.7 0.6 310 34.7
2006-02-23 11:50:31 51°28.806 2°26.646 357.8 0.6 310 34.7
2006-02-23 11:51:31 51°28.813 2°26.633 1.7 0.5 305 34.6
2006-02-23 11:52:31 51°28.817 2°26.62 5 0.5 302 34.3
2006-02-23 11:53:31 51°28.822 2°26.607 2.9 0.6 290 34.5
2006-02-23 11:54:31 51°28.825 2°26.592 358.2 0.6 296 34.6
2006-02-23 11:55:31 51°28.828 2°26.577 353.6 0.5 290 34.2
2006-02-23 11:56:31 51°28.83 2°26.563 348.7 0.6 288 34.4
2006-02-23 11:57:31 51°28.833 2°26.551 344.3 0.6 289 34.3
2006-02-23 11:58:31 51°28.836 2°26.538 340.3 0.5 292 34.6
2006-02-23 11:59:31 51°28.838 2°26.524 338.1 0.5 284 34.2
2006-02-23 12:00:32 51°28.847 2°26.504 336.8 1.9 323 34.4
2006-02-23 12:01:31 51°28.92 2°26.476 -999 7.1 354 34.3
2006-02-23 12:02:31 51°29.067 2°26.446 359.3 10 353 32.7
2006-02-23 12:03:31 51°29.236 2°26.5 33.7 10.7 28 34.2
2006-02-23 12:04:31 51°29.376 2°26.701 51.5 12.1 45 32.6
2006-02-23 12:05:31 51°29.517 2°26.95 54.5 12.8 48 31.7
2006-02-23 12:06:31 51°29.686 2°27.15 32.4 12.7 24 33.3
2006-02-23 12:07:31 51°29.895 2°27.224 14.5 13 8 29.9
2006-02-23 12:08:31 51°30.108 2°27.282 16.9 13 10 30.3
2006-02-23 12:09:31 51°30.322 2°27.341 15.6 12.9 9 29.6
2006-02-23 12:10:31 51°30.534 2°27.405 18 13.2 11 28.9
2006-02-23 12:11:31 51°30.745 2°27.477 21 13 15 29.9
2006-02-23 12:12:31 51°30.949 2°27.588 27.1 13 21 29.3
2006-02-23 12:13:31 51°31.147 2°27.723 29.9 12.9 23 30.7
2006-02-23 12:14:31 51°31.347 2°27.856 29.5 13 23 31
2006-02-23 12:15:31 51°31.544 2°27.997 32.1 13 27 27.9
2006-02-23 12:16:31 51°31.74 2°28.15 32.7 13.1 26 32.3
2006-02-23 12:17:32 51°31.934 2°28.316 35.2 12.9 28 34.1
2006-02-23 12:18:31 51°32.121 2°28.476 34.4 13 28 36.7
2006-02-23 12:19:31 51°32.313 2°28.637 34.8 13 27 38.5
2006-02-23 12:20:31 51°32.504 2°28.797 34.4 13.1 28 38.7
2006-02-23 12:21:31 51°32.697 2°28.957 34.8 13 27 39
2006-02-23 12:22:31 51°32.89 2°29.12 34.6 13.1 28 39.2
2006-02-23 12:23:31 51°33.083 2°29.279 33.9 13.1 28 39.2
2006-02-23 12:24:31 51°33.274 2°29.445 34.6 13 29 37.6
2006-02-23 12:25:31 51°33.464 2°29.61 34.6 13.1 28 38.9
2006-02-23 12:26:31 51°33.656 2°29.775 34.3 12.9 29 37.7
2006-02-23 12:27:31 51°33.847 2°29.942 34.2 13.1 28 38.4
2006-02-23 12:28:31 51°34.037 2°30.11 35.3 12.9 30 39.1
2006-02-23 12:29:31 51°34.225 2°30.282 35.2 12.9 30 40
2006-02-23 12:30:31 51°34.412 2°30.457 34.8 13.1 29 41.3
2006-02-23 12:31:31 51°34.6 2°30.632 35.4 13.2 30 39.5
2006-02-23 12:32:31 51°34.79 2°30.803 33.9 13.1 28 40.4
2006-02-23 12:33:31 51°34.977 2°30.987 37.5 13.2 32 37.5
2006-02-23 12:34:31 51°35.163 2°31.172 37.6 13.1 33 40.1
2006-02-23 12:35:31 51°35.347 2°31.361 37.9 13.1 33 38
2006-02-23 12:36:31 51°35.531 2°31.546 36.4 13.2 32 38.4
2006-02-23 12:37:31 51°35.715 2°31.733 37.4 13.1 32 37.7
2006-02-23 12:38:31 51°35.9 2°31.92 37 13 33 37.8
2006-02-23 12:39:31 51°36.086 2°32.107 37 13.2 32 39.3
2006-02-23 12:40:31 51°36.267 2°32.306 39.7 13.2 35 40
2006-02-23 12:41:31 51°36.447 2°32.504 38.8 13.1 34 39.7
2006-02-23 12:42:31 51°36.626 2°32.7 39.2 13 34 37.7
2006-02-23 12:43:31 51°36.805 2°32.896 39.1 13.1 34 36.3
2006-02-23 12:44:31 51°36.983 2°33.092 41 13 36 36.1
2006-02-23 12:45:31 51°37.143 2°33.321 52.2 12.8 52 35.3
2006-02-23 12:46:31 51°37.227 2°33.63 82.7 12.7 78 33.3
2006-02-23 12:47:31 51°37.256 2°33.968 86.6 12.8 81 26.2
2006-02-23 12:48:31 51°37.277 2°34.307 95.8 12.4 93 11.7
2006-02-23 12:49:31 51°37.201 2°34.608 124.7 12.5 123 24.6
2006-02-23 12:50:31 51°37.036 2°34.803 157.9 12.5 156 27.8
2006-02-23 12:51:31 51°36.827 2°34.856 174.5 12.6 174 27.7
2006-02-23 12:52:31 51°36.621 2°34.943 162.5 12.6 161 30
2006-02-23 12:53:31 51°36.419 2°35.052 163 12.8 160 33.4
2006-02-23 12:54:31 51°36.218 2°35.153 165.4 12.6 165 35.9
2006-02-23 12:55:31 51°36.015 2°35.253 165.3 12.8 164 37.5
2006-02-23 12:56:32 51°35.811 2°35.367 161.6 12.8 160 36.4
2006-02-23 12:57:31 51°35.614 2°35.483 162.3 12.7 161 35.6
2006-02-23 12:58:31 51°35.411 2°35.599 162.5 12.7 160 35.4
2006-02-23 12:59:31 51°35.211 2°35.721 161.7 13 159 35.5
2006-02-23 13:00:31 51°35.008 2°35.828 162.9 12.9 158 33.1
2006-02-23 13:01:31 51°34.806 2°35.936 167.6 12.8 164 30.5
2006-02-23 13:02:31 51°34.592 2°35.932 185.2 12.6 182 29.9
2006-02-23 13:03:31 51°34.378 2°35.919 183.9 13 182 29.1
2006-02-23 13:04:31 51°34.162 2°35.924 180.1 13 178 28.6
2006-02-23 13:05:31 51°33.948 2°35.928 183.9 12.9 181 31.3
2006-02-23 13:06:31 51°33.734 2°35.935 182.1 12.6 184 32.7
2006-02-23 13:07:31 51°33.523 2°35.889 192.6 12.9 190 33.6
2006-02-23 13:08:32 51°33.307 2°35.823 196.6 13.1 193 35.2
2006-02-23 13:09:31 51°33.102 2°35.741 196.9 12.7 193 34.6
2006-02-23 13:10:31 51°32.89 2°35.676 189.7 13.2 188 35.8
2006-02-23 13:11:31 51°32.671 2°35.654 184.3 13.2 183 35.9
2006-02-23 13:12:31 51°32.455 2°35.671 178.1 12.7 175 36.7
2006-02-23 13:13:32 51°32.24 2°35.691 178.7 12.8 175 37.1
2006-02-23 13:14:32 51°32.033 2°35.736 172.7 12.5 171 38
2006-02-23 13:15:32 51°31.825 2°35.772 175.9 12.6 173 38.6
2006-02-23 13:16:31 51°31.617 2°35.808 174.6 12.9 174 38.5
2006-02-23 13:17:32 51°31.409 2°35.9 165 12.9 165 37.1
2006-02-23 13:18:31 51°31.21 2°36.004 162.7 12.7 159 37.6
2006-02-23 13:19:31 51°31.012 2°36.126 162.8 12.9 158 36.6
2006-02-23 13:20:31 51°30.813 2°36.25 158.4 12.9 154 36
2006-02-23 13:21:31 51°30.614 2°36.386 159.6 13.1 157 33.7
2006-02-23 13:22:31 51°30.425 2°36.548 153.6 12.8 152 29.6
2006-02-23 13:23:31 51°30.24 2°36.717 150.3 12.7 148 26.1
2006-02-23 13:24:31 51°30.059 2°36.896 151.4 12.8 149 24.5
2006-02-23 13:25:31 51°29.875 2°37.065 151.7 12.7 153 23.4
2006-02-23 13:26:31 51°29.688 2°37.232 151.7 12.6 153 24.2
2006-02-23 13:27:31 51°29.503 2°37.399 150.9 12.5 153 33.2
2006-02-23 13:28:31 51°29.315 2°37.565 150.2 13.1 151 35.8
2006-02-23 13:29:31 51°29.126 2°37.73 151.6 12.8 149 36.4
2006-02-23 13:30:31 51°28.939 2°37.897 152.7 12.9 155 35.6
2006-02-23 13:31:31 51°28.749 2°38.067 151.8 13.1 153 36.1
2006-02-23 13:32:31 51°28.558 2°38.232 152.3 13.2 153 36.1
2006-02-23 13:33:31 51°28.369 2°38.405 148.7 13 148 33.5
2006-02-23 13:34:31 51°28.183 2°38.585 149.8 13 150 33.9
2006-02-23 13:35:31 51°27.997 2°38.764 148.6 13 149 33.2
2006-02-23 13:36:31 51°27.81 2°38.937 148.7 13 150 33.2
2006-02-23 13:37:31 51°27.627 2°39.121 147.8 12.9 147 32.8
2006-02-23 13:38:31 51°27.439 2°39.297 148.8 12.9 148 33.2
2006-02-23 13:39:31 51°27.252 2°39.471 150.3 13 151 33
2006-02-23 13:40:31 51°27.065 2°39.645 148.4 12.8 150 32.1
2006-02-23 13:41:31 51°26.877 2°39.815 149.7 13 151 31.7
2006-02-23 13:42:31 51°26.688 2°39.99 148.6 13.1 151 30.1
2006-02-23 13:43:31 51°26.499 2°40.161 150.1 13 153 30.1
2006-02-23 13:44:31 51°26.311 2°40.332 148.8 12.7 150 30.7
2006-02-23 13:45:31 51°26.124 2°40.502 148.6 12.8 151 29.9
2006-02-23 13:46:31 51°25.937 2°40.672 148 12.9 148 29.2
2006-02-23 13:47:31 51°25.751 2°40.843 148.7 12.9 151 27.3
2006-02-23 13:48:31 51°25.565 2°41.018 148.8 12.8 150 26
2006-02-23 13:49:31 51°25.374 2°41.185 149.5 13 152 25.8
2006-02-23 13:50:31 51°25.187 2°41.354 149.5 13 151 24.7
2006-02-23 13:51:31 51°24.999 2°41.521 149.2 13.3 151 26
2006-02-23 13:52:31 51°24.813 2°41.691 149 12.8 151 26.5
2006-02-23 13:53:31 51°24.625 2°41.853 148.7 12.7 150 20.8
2006-02-23 13:54:31 51°24.439 2°42.019 149.9 12.9 152 26.5
2006-02-23 13:55:31 51°24.252 2°42.182 150.9 13.2 152 25.4
2006-02-23 13:56:31 51°24.064 2°42.344 149.3 12.8 151 24
2006-02-23 13:57:31 51°23.879 2°42.51 148.4 12.5 149 24.8
2006-02-23 13:58:31 51°23.694 2°42.671 151.6 13.1 150 25.2
2006-02-23 13:59:31 51°23.505 2°42.83 149.5 12.9 153 25.1
2006-02-23 14:00:31 51°23.316 2°42.991 150.6 13 154 26.3
2006-02-23 14:01:31 51°23.126 2°43.154 147.4 12.9 152 25.8
2006-02-23 14:02:31 51°22.938 2°43.316 149.2 12.8 153 25.7
2006-02-23 14:03:31 51°22.748 2°43.477 149 13 152 25.4
2006-02-23 14:04:31 51°22.558 2°43.639 149.6 13.1 153 25.4
2006-02-23 14:05:31 51°22.366 2°43.8 148.9 12.9 153 24.9
2006-02-23 14:06:31 51°22.175 2°43.96 148.9 12.9 152 23.9
2006-02-23 14:07:31 51°21.986 2°44.12 149.2 12.8 154 21.9
2006-02-23 14:08:31 51°21.798 2°44.283 148 13 152 23.2
2006-02-23 14:09:31 51°21.607 2°44.444 148 12.9 152 21.8
2006-02-23 14:10:31 51°21.421 2°44.61 148.9 12.6 150 23
2006-02-23 14:11:31 51°21.234 2°44.774 147.3 12.7 149 24.6
2006-02-23 14:12:31 51°21.056 2°44.96 143.3 12.8 148 25.8
2006-02-23 14:13:31 51°20.886 2°45.159 140.8 12.6 142 26.2
2006-02-23 14:14:31 51°20.741 2°45.395 126.8 12.5 128 25.4
2006-02-23 14:15:31 51°20.614 2°45.655 126.6 12.4 128 24
2006-02-23 14:16:31 51°20.484 2°45.912 125.9 12.3 128 20.2
2006-02-23 14:17:31 51°20.355 2°46.166 125.5 12.4 128 16.1
2006-02-23 14:18:31 51°20.224 2°46.419 126.5 12.2 131 13.7
2006-02-23 14:19:31 51°20.094 2°46.67 127.9 12.3 133 15.6
2006-02-23 14:20:31 51°19.962 2°46.926 127.1 12.6 131 18.8
2006-02-23 14:21:31 51°19.832 2°47.183 127.1 12.5 128 20.6
2006-02-23 14:22:31 51°19.701 2°47.441 127.2 12.6 129 21.4
2006-02-23 14:23:31 51°19.568 2°47.697 126.7 12.4 131 21.3
2006-02-23 14:24:31 51°19.435 2°47.953 127.4 12.6 129 20.2
2006-02-23 14:25:31 51°19.3 2°48.207 128.3 12.5 127 18.2
2006-02-23 14:26:31 51°19.167 2°48.46 125.6 12.2 131 16
2006-02-23 14:27:31 51°19.038 2°48.716 128.3 12.4 129 14
2006-02-23 14:28:31 51°18.908 2°48.97 127.7 12.2 127 11.5
2006-02-23 14:29:31 51°18.778 2°49.223 127.8 12.5 125 10.6
2006-02-23 14:30:31 51°18.651 2°49.479 125.6 12.5 127 10.1
2006-02-23 14:31:31 51°18.521 2°49.736 127 12.5 129 12.1
2006-02-23 14:32:31 51°18.393 2°49.994 125.3 12.4 126 13.5
2006-02-23 14:33:31 51°18.27 2°50.261 124.9 12.4 129 13.6
2006-02-23 14:34:31 51°18.135 2°50.515 128.3 12.7 134 12.8
2006-02-23 14:35:31 51°18.002 2°50.772 127.2 12.5 129 12
2006-02-23 14:36:31 51°17.868 2°51.027 128.1 12.7 131 10.8
2006-02-23 14:37:31 51°17.734 2°51.282 126 12.4 127 9.5
2006-02-23 14:38:31 51°17.604 2°51.542 128.5 12.8 128 9.2
2006-02-23 14:39:31 51°17.471 2°51.802 127 12.8 131 9.8
2006-02-23 14:40:31 51°17.335 2°52.059 129.1 12.5 130 10.1
2006-02-23 14:41:31 51°17.2 2°52.313 128.1 12.3 130 9.7
2006-02-23 14:42:31 51°17.082 2°52.583 117.6 12.1 119 9.1
2006-02-23 14:43:31 51°16.999 2°52.882 109.2 12 107 8.8
2006-02-23 14:44:30 51°16.975 2°53.186 90.7 11.7 91 5.6
2006-02-23 14:45:31 51°16.946 2°53.47 110.3 8.4 117 8.1
2006-02-23 14:46:31 51°16.888 2°53.562 140 2.8 156 10.5
2006-02-23 14:47:31 51°16.868 2°53.56 128 1.1 192 10.7
2006-02-23 14:48:31 51°16.85 2°53.553 121.7 1.1 193 10.8
2006-02-23 14:49:31 51°16.832 2°53.543 123.6 1.2 202 10.7
2006-02-23 14:50:31 51°16.815 2°53.531 130.6 1.1 203 10.8
2006-02-23 14:51:31 51°16.798 2°53.517 132.2 1.2 208 10.9
2006-02-23 14:52:31 51°16.781 2°53.504 131.2 1.2 207 10.8
2006-02-23 14:53:31 51°16.765 2°53.492 127.7 1 205 10.9
2006-02-23 14:54:30 51°16.749 2°53.478 127 1.1 206 10.9
2006-02-23 14:55:31 51°16.733 2°53.464 129.2 1.1 210 11
2006-02-23 14:56:31 51°16.717 2°53.447 133.3 1.2 212 11
2006-02-23 14:57:31 51°16.701 2°53.427 135.8 1.2 219 11.1
2006-02-23 14:58:31 51°16.686 2°53.405 138.5 1.3 225 11.1
2006-02-23 14:59:31 51°16.671 2°53.381 140.5 1.3 226 11.1
2006-02-23 15:00:31 51°16.656 2°53.356 140.8 1.2 228 11.2
2006-02-23 15:01:31 51°16.642 2°53.331 140.8 1.3 231 11.3
2006-02-23 15:02:31 51°16.628 2°53.304 142.5 1.3 230 11.3
2006-02-23 15:03:31 51°16.614 2°53.277 145.7 1.3 229 11.4
2006-02-23 15:04:31 51°16.599 2°53.25 148 1.3 229 11.4
2006-02-23 15:05:31 51°16.584 2°53.222 151.9 1.4 229 11.5
2006-02-23 15:06:31 51°16.565 2°53.197 154.4 2 190 11.5
2006-02-23 15:07:31 51°16.459 2°53.233 161.8 9.6 164 11.5
2006-02-23 15:08:31 51°16.276 2°53.315 162.4 12.5 164 11.3
2006-02-23 15:09:31 51°16.07 2°53.414 161.8 13.2 162 11.1
2006-02-23 15:10:31 51°15.868 2°53.533 159.2 12.8 161 10.8
2006-02-23 15:11:31 51°15.668 2°53.656 156 12.7 158 10.2
2006-02-23 15:12:31 51°15.477 2°53.803 148.7 12.8 149 9.8
2006-02-23 15:13:31 51°15.312 2°53.976 143.1 10.7 143 9.3
2006-02-23 15:14:32 51°15.168 2°54.136 139.4 9.9 144 8.7
2006-02-23 15:15:30 51°15.056 2°54.287 135.5 8.8 140 8.4
2006-02-23 15:16:31 51°14.937 2°54.427 142.6 8.2 146 8.6
2006-02-23 15:17:31 51°14.839 2°54.533 140.8 6.5 145 8.9
2006-02-23 15:18:31 51°14.749 2°54.622 143.9 6.5 151 9.1
2006-02-23 15:19:31 51°14.604 2°54.764 146.6 12.1 146 8.9
2006-02-23 15:20:31 51°14.434 2°54.948 142.2 12.3 139 -999
2006-02-23 15:21:31 51°14.304 2°55.194 133.7 11.8 129 4.8
2006-02-23 15:22:31 51°14.172 2°55.376 151.2 9.5 149 4.9
2006-02-23 15:23:32 51°14.045 2°55.471 159.4 7.5 156 -999
2006-02-23 15:24:31 51°13.948 2°55.543 157.7 6.3 155 -999
2006-02-23 15:25:31 51°13.853 2°55.613 156.6 6.3 154 -999
2006-02-23 15:26:31 51°13.768 2°55.701 144 6.1 139 -999
2006-02-23 15:27:32 51°13.703 2°55.807 133.9 4.8 130 -999
2006-02-23 15:28:31 51°13.663 2°55.896 125.8 3.7 122 -999
2006-02-23 15:29:31 51°13.638 2°55.967 121.2 2.7 118 -999
2006-02-23 15:30:31 51°13.621 2°56.023 119.4 2.1 114 10
2006-02-23 15:31:31 51°13.611 2°56.06 121.3 1.2 112 8.1
2006-02-23 15:32:31 51°13.605 2°56.079 121.7 0.7 116 6.9